sensor_id;sensor_type;location;lat;lon;timestamp;pressure;altitude;pressure_sealevel;temperature;humidity
55032;BME280;40928;51.076;7.950;2022-09-03T00:00:48;96787.53;;;14.36;54.59
55032;BME280;40928;51.076;7.950;2022-09-03T00:03:43;96788.63;;;14.40;54.34
55032;BME280;40928;51.076;7.950;2022-09-03T00:06:11;96787.28;;;14.42;54.33
55032;BME280;40928;51.076;7.950;2022-09-03T00:11:32;96781.91;;;14.48;54.22
55032;BME280;40928;51.076;7.950;2022-09-03T00:14:06;96789.69;;;14.49;54.27
55032;BME280;40928;51.076;7.950;2022-09-03T00:16:46;96779.47;;;14.51;54.19
55032;BME280;40928;51.076;7.950;2022-09-03T00:19:19;96779.72;;;14.50;54.31
55032;BME280;40928;51.076;7.950;2022-09-03T00:21:54;96783.25;;;14.50;54.17
55032;BME280;40928;51.076;7.950;2022-09-03T00:24:24;96780.81;;;14.49;54.19
55032;BME280;40928;51.076;7.950;2022-09-03T00:26:54;96778.13;;;14.49;54.35
55032;BME280;40928;51.076;7.950;2022-09-03T00:29:26;96775.44;;;14.49;54.07
55032;BME280;40928;51.076;7.950;2022-09-03T00:32:01;96784.03;;;14.51;54.01
55032;BME280;40928;51.076;7.950;2022-09-03T00:34:28;96782.97;;;14.52;53.88
55032;BME280;40928;51.076;7.950;2022-09-03T00:36:56;96778.66;;;14.51;54.02
55032;BME280;40928;51.076;7.950;2022-09-03T00:39:23;96791.03;;;14.52;54.12
55032;BME280;40928;51.076;7.950;2022-09-03T00:47:35;96781.63;;;14.44;54.52
55032;BME280;40928;51.076;7.950;2022-09-03T00:50:19;96782.44;;;14.44;54.61
55032;BME280;40928;51.076;7.950;2022-09-03T01:00:50;96780.56;;;14.45;54.37
55032;BME280;40928;51.076;7.950;2022-09-03T01:06:07;96777.88;;;14.45;54.53
55032;BME280;40928;51.076;7.950;2022-09-03T01:24:50;96782.97;;;14.36;54.64
55032;BME280;40928;51.076;7.950;2022-09-03T01:28:03;96777.06;;;14.34;54.91
55032;BME280;40928;51.076;7.950;2022-09-03T01:30:32;96771.16;;;14.32;54.99
55032;BME280;40928;51.076;7.950;2022-09-03T01:33:32;96777.06;;;14.29;55.01
55032;BME280;40928;51.076;7.950;2022-09-03T01:47:08;96773.31;;;14.30;55.08
55032;BME280;40928;51.076;7.950;2022-09-03T01:49:57;96771.69;;;14.29;55.00
55032;BME280;40928;51.076;7.950;2022-09-03T01:53:02;96769.81;;;14.29;55.27
55032;BME280;40928;51.076;7.950;2022-09-03T01:58:18;96771.16;;;14.22;55.59
55032;BME280;40928;51.076;7.950;2022-09-03T02:00:49;96760.41;;;14.22;55.38
55032;BME280;40928;51.076;7.950;2022-09-03T02:03:18;96763.09;;;14.22;55.28
55032;BME280;40928;51.076;7.950;2022-09-03T02:05:44;96760.94;;;14.19;55.54
55032;BME280;40928;51.076;7.950;2022-09-03T02:08:11;96764.16;;;14.21;55.44
55032;BME280;40928;51.076;7.950;2022-09-03T02:10:40;96758.00;;;14.20;55.55
55032;BME280;40928;51.076;7.950;2022-09-03T02:13:11;96764.19;;;14.26;55.27
55032;BME280;40928;51.076;7.950;2022-09-03T02:15:42;96753.16;;;14.27;55.20
55032;BME280;40928;51.076;7.950;2022-09-03T02:18:15;96759.59;;;14.31;55.35
55032;BME280;40928;51.076;7.950;2022-09-03T02:20:42;96758.81;;;14.31;55.52
55032;BME280;40928;51.076;7.950;2022-09-03T02:23:08;96760.44;;;14.32;55.27
55032;BME280;40928;51.076;7.950;2022-09-03T02:25:40;96753.44;;;14.31;55.48
55032;BME280;40928;51.076;7.950;2022-09-03T02:28:10;96759.59;;;14.31;55.54
55032;BME280;40928;51.076;7.950;2022-09-03T02:30:39;96757.19;;;14.30;55.55
55032;BME280;40928;51.076;7.950;2022-09-03T02:33:04;96755.31;;;14.30;55.49
55032;BME280;40928;51.076;7.950;2022-09-03T02:35:30;96748.06;;;14.31;55.51
55032;BME280;40928;51.076;7.950;2022-09-03T02:37:56;96748.06;;;14.31;55.39
55032;BME280;40928;51.076;7.950;2022-09-03T02:40:21;96751.84;;;14.30;55.70
55032;BME280;40928;51.076;7.950;2022-09-03T02:42:47;96759.09;;;14.24;56.11
55032;BME280;40928;51.076;7.950;2022-09-03T02:45:44;96751.56;;;14.21;55.96
55032;BME280;40928;51.076;7.950;2022-09-03T02:48:12;96746.72;;;14.23;56.02
55032;BME280;40928;51.076;7.950;2022-09-03T02:50:41;96749.66;;;14.22;56.20
55032;BME280;40928;51.076;7.950;2022-09-03T02:53:07;96742.97;;;14.19;56.33
55032;BME280;40928;51.076;7.950;2022-09-03T02:55:33;96751.56;;;14.16;56.25
55032;BME280;40928;51.076;7.950;2022-09-03T02:57:58;96749.94;;;14.15;56.36
55032;BME280;40928;51.076;7.950;2022-09-03T03:00:25;96749.69;;;14.11;56.62
55032;BME280;40928;51.076;7.950;2022-09-03T03:02:50;96745.66;;;14.09;56.62
55032;BME280;40928;51.076;7.950;2022-09-03T03:05:25;96749.13;;;14.04;57.00
55032;BME280;40928;51.076;7.950;2022-09-03T03:07:54;96751.03;;;14.04;56.98
55032;BME280;40928;51.076;7.950;2022-09-03T03:10:20;96748.59;;;13.97;57.30
55032;BME280;40928;51.076;7.950;2022-09-03T03:12:46;96746.97;;;13.96;57.32
55032;BME280;40928;51.076;7.950;2022-09-03T03:15:11;96739.47;;;13.98;57.17
55032;BME280;40928;51.076;7.950;2022-09-03T03:17:37;96737.31;;;13.95;57.17
55032;BME280;40928;51.076;7.950;2022-09-03T03:20:03;96742.69;;;14.00;56.93
55032;BME280;40928;51.076;7.950;2022-09-03T03:22:28;96734.34;;;13.96;56.86
55032;BME280;40928;51.076;7.950;2022-09-03T03:24:54;96730.34;;;13.99;57.01
55032;BME280;40928;51.076;7.950;2022-09-03T03:27:21;96739.72;;;13.96;57.23
55032;BME280;40928;51.076;7.950;2022-09-03T03:29:48;96742.16;;;13.93;57.37
55032;BME280;40928;51.076;7.950;2022-09-03T03:32:14;96738.38;;;13.89;57.64
55032;BME280;40928;51.076;7.950;2022-09-03T03:34:40;96735.16;;;13.86;57.74
55032;BME280;40928;51.076;7.950;2022-09-03T03:37:05;96725.50;;;13.85;57.51
55032;BME280;40928;51.076;7.950;2022-09-03T03:39:31;96728.19;;;13.80;57.85
55032;BME280;40928;51.076;7.950;2022-09-03T03:41:56;96731.66;;;13.81;58.00
55032;BME280;40928;51.076;7.950;2022-09-03T03:44:22;96730.03;;;13.80;57.93
55032;BME280;40928;51.076;7.950;2022-09-03T03:46:47;96741.06;;;13.78;57.79
55032;BME280;40928;51.076;7.950;2022-09-03T03:49:13;96745.34;;;13.74;58.13
55032;BME280;40928;51.076;7.950;2022-09-03T03:51:38;96744.78;;;13.72;58.07
55032;BME280;40928;51.076;7.950;2022-09-03T03:54:05;96735.41;;;13.69;58.14
55032;BME280;40928;51.076;7.950;2022-09-03T03:56:31;96731.13;;;13.68;58.32
55032;BME280;40928;51.076;7.950;2022-09-03T03:58:57;96730.03;;;13.69;58.06
55032;BME280;40928;51.076;7.950;2022-09-03T04:01:25;96739.69;;;13.70;58.16
55032;BME280;40928;51.076;7.950;2022-09-03T04:03:53;96736.75;;;13.72;57.93
55032;BME280;40928;51.076;7.950;2022-09-03T04:06:20;96726.84;;;13.73;57.91
55032;BME280;40928;51.076;7.950;2022-09-03T04:08:47;96722.00;;;13.75;57.88
55032;BME280;40928;51.076;7.950;2022-09-03T04:11:16;96723.88;;;13.74;57.86
55032;BME280;40928;51.076;7.950;2022-09-03T04:13:43;96713.97;;;13.75;57.74
55032;BME280;40928;51.076;7.950;2022-09-03T04:16:13;96716.09;;;13.73;57.86
55032;BME280;40928;51.076;7.950;2022-09-03T04:18:40;96717.97;;;13.72;57.90
55032;BME280;40928;51.076;7.950;2022-09-03T04:21:13;96715.56;;;13.70;58.04
55032;BME280;40928;51.076;7.950;2022-09-03T04:23:41;96716.63;;;13.69;58.06
55032;BME280;40928;51.076;7.950;2022-09-03T04:26:09;96712.09;;;13.70;58.07
55032;BME280;40928;51.076;7.950;2022-09-03T04:28:36;96713.66;;;13.71;58.10
55032;BME280;40928;51.076;7.950;2022-09-03T04:31:03;96709.66;;;13.68;58.20
55032;BME280;40928;51.076;7.950;2022-09-03T04:33:30;96708.84;;;13.68;58.13
55032;BME280;40928;51.076;7.950;2022-09-03T04:36:23;96707.25;;;13.67;58.27
55032;BME280;40928;51.076;7.950;2022-09-03T04:38:52;96708.84;;;13.68;58.25
55032;BME280;40928;51.076;7.950;2022-09-03T04:41:24;96702.66;;;13.67;58.12
55032;BME280;40928;51.076;7.950;2022-09-03T04:43:51;96714.75;;;13.65;58.30
55032;BME280;40928;51.076;7.950;2022-09-03T04:46:18;96708.84;;;13.63;58.31
55032;BME280;40928;51.076;7.950;2022-09-03T04:48:47;96710.44;;;13.64;58.18
55032;BME280;40928;51.076;7.950;2022-09-03T04:51:17;96708.84;;;13.63;58.83
55032;BME280;40928;51.076;7.950;2022-09-03T04:53:45;96720.13;;;13.65;58.78
55032;BME280;40928;51.076;7.950;2022-09-03T04:56:20;96717.97;;;13.67;58.67
55032;BME280;40928;51.076;7.950;2022-09-03T04:58:47;96717.16;;;13.66;58.56
55032;BME280;40928;51.076;7.950;2022-09-03T05:01:18;96713.66;;;13.71;58.32
55032;BME280;40928;51.076;7.950;2022-09-03T05:03:44;96708.56;;;13.69;58.31
55032;BME280;40928;51.076;7.950;2022-09-03T05:06:10;96708.56;;;13.69;58.44
55032;BME280;40928;51.076;7.950;2022-09-03T05:08:36;96710.72;;;13.67;58.51
55032;BME280;40928;51.076;7.950;2022-09-03T05:11:03;96706.16;;;13.68;58.64
55032;BME280;40928;51.076;7.950;2022-09-03T05:13:29;96717.97;;;13.72;58.49
55032;BME280;40928;51.076;7.950;2022-09-03T05:16:03;96709.91;;;13.72;58.69
55032;BME280;40928;51.076;7.950;2022-09-03T05:18:29;96716.66;;;13.75;58.68
55032;BME280;40928;51.076;7.950;2022-09-03T05:20:59;96705.63;;;13.76;58.39
55032;BME280;40928;51.076;7.950;2022-09-03T05:23:26;96706.16;;;13.78;58.18
55032;BME280;40928;51.076;7.950;2022-09-03T05:25:56;96712.09;;;13.80;58.06
55032;BME280;40928;51.076;7.950;2022-09-03T05:28:24;96715.31;;;13.82;58.11
55032;BME280;40928;51.076;7.950;2022-09-03T05:33:28;96714.22;;;13.89;58.10
55032;BME280;40928;51.076;7.950;2022-09-03T05:35:59;96711.84;;;13.92;58.06
55032;BME280;40928;51.076;7.950;2022-09-03T05:38:25;96715.84;;;13.95;57.93
55032;BME280;40928;51.076;7.950;2022-09-03T05:40:50;96715.03;;;13.99;58.28
55032;BME280;40928;51.076;7.950;2022-09-03T05:43:16;96714.78;;;14.01;58.03
55032;BME280;40928;51.076;7.950;2022-09-03T05:45:42;96713.16;;;14.05;58.23
55032;BME280;40928;51.076;7.950;2022-09-03T05:48:07;96708.31;;;14.07;58.05
55032;BME280;40928;51.076;7.950;2022-09-03T05:50:33;96710.47;;;14.10;57.94
55032;BME280;40928;51.076;7.950;2022-09-03T05:52:59;96710.75;;;14.14;57.96
55032;BME280;40928;51.076;7.950;2022-09-03T05:55:24;96711.00;;;14.18;57.82
55032;BME280;40928;51.076;7.950;2022-09-03T05:57:50;96709.13;;;14.18;58.25
55032;BME280;40928;51.076;7.950;2022-09-03T06:00:16;96720.94;;;14.22;57.95
55032;BME280;40928;51.076;7.950;2022-09-03T06:02:49;96713.16;;;14.26;57.98
55032;BME280;40928;51.076;7.950;2022-09-03T06:05:15;96714.78;;;14.32;58.32
55032;BME280;40928;51.076;7.950;2022-09-03T06:07:41;96714.78;;;14.32;58.20
55032;BME280;40928;51.076;7.950;2022-09-03T06:10:06;96710.19;;;14.38;57.95
55032;BME280;40928;51.076;7.950;2022-09-03T06:12:32;96706.41;;;14.44;58.17
55032;BME280;40928;51.076;7.950;2022-09-03T06:14:58;96707.19;;;14.50;57.97
55032;BME280;40928;51.076;7.950;2022-09-03T06:17:23;96714.19;;;14.56;58.02
55032;BME280;40928;51.076;7.950;2022-09-03T06:19:49;96713.34;;;14.66;57.72
55032;BME280;40928;51.076;7.950;2022-09-03T06:22:14;96717.13;;;14.75;57.72
55032;BME280;40928;51.076;7.950;2022-09-03T06:24:40;96715.19;;;14.86;57.48
55032;BME280;40928;51.076;7.950;2022-09-03T06:27:06;96722.69;;;14.99;56.99
55032;BME280;40928;51.076;7.950;2022-09-03T06:29:32;96713.75;;;15.14;56.27
55032;BME280;40928;51.076;7.950;2022-09-03T06:31:59;96712.31;;;15.32;55.37
55032;BME280;40928;51.076;7.950;2022-09-03T06:34:28;96708.75;;;15.47;55.24
55032;BME280;40928;51.076;7.950;2022-09-03T06:36:55;96716.47;;;15.59;54.80
55032;BME280;40928;51.076;7.950;2022-09-03T06:39:21;96715.59;;;15.69;54.52
55032;BME280;40928;51.076;7.950;2022-09-03T06:41:46;96708.28;;;15.75;54.36
55032;BME280;40928;51.076;7.950;2022-09-03T06:44:23;96712.81;;;15.84;53.72
55032;BME280;40928;51.076;7.950;2022-09-03T06:46:48;96719.50;;;15.92;53.94
55032;BME280;40928;51.076;7.950;2022-09-03T06:49:14;96721.09;;;15.98;53.57
55032;BME280;40928;51.076;7.950;2022-09-03T06:51:40;96719.38;;;16.08;53.24
55032;BME280;40928;51.076;7.950;2022-09-03T06:54:10;96717.41;;;16.19;53.00
55032;BME280;40928;51.076;7.950;2022-09-03T06:56:38;96709.88;;;16.21;52.82
55032;BME280;40928;51.076;7.950;2022-09-03T06:59:06;96716.81;;;16.27;52.80
55032;BME280;40928;51.076;7.950;2022-09-03T07:01:33;96714.28;;;16.36;52.98
55032;BME280;40928;51.076;7.950;2022-09-03T07:04:01;96713.69;;;16.44;52.61
55032;BME280;40928;51.076;7.950;2022-09-03T07:06:29;96715.31;;;16.45;52.18
55032;BME280;40928;51.076;7.950;2022-09-03T07:08:55;96714.97;;;16.52;52.08
55032;BME280;40928;51.076;7.950;2022-09-03T07:11:24;96728.66;;;16.55;52.10
55032;BME280;40928;51.076;7.950;2022-09-03T07:13:52;96724.31;;;16.59;52.12
55032;BME280;40928;51.076;7.950;2022-09-03T07:16:19;96721.84;;;16.63;51.90
55032;BME280;40928;51.076;7.950;2022-09-03T07:18:45;96724.84;;;16.62;51.72
55032;BME280;40928;51.076;7.950;2022-09-03T07:21:13;96725.41;;;16.58;51.94
55032;BME280;40928;51.076;7.950;2022-09-03T07:23:39;96721.84;;;16.63;51.84
55032;BME280;40928;51.076;7.950;2022-09-03T07:26:10;96731.72;;;16.73;51.91
55032;BME280;40928;51.076;7.950;2022-09-03T07:28:38;96730.94;;;16.72;51.71
55032;BME280;40928;51.076;7.950;2022-09-03T07:31:16;96730.09;;;16.77;51.76
55032;BME280;40928;51.076;7.950;2022-09-03T07:33:43;96732.66;;;16.87;51.59
55032;BME280;40928;51.076;7.950;2022-09-03T07:36:11;96723.69;;;16.92;51.77
55032;BME280;40928;51.076;7.950;2022-09-03T07:38:38;96728.00;;;16.93;51.67
55032;BME280;40928;51.076;7.950;2022-09-03T07:41:06;96724.41;;;17.03;50.95
55032;BME280;40928;51.076;7.950;2022-09-03T07:43:37;96730.84;;;17.07;51.54
55032;BME280;40928;51.076;7.950;2022-09-03T07:46:11;96726.16;;;17.18;51.64
55032;BME280;40928;51.076;7.950;2022-09-03T07:48:39;96725.69;;;17.30;51.13
55032;BME280;40928;51.076;7.950;2022-09-03T07:51:08;96728.72;;;17.47;50.97
55032;BME280;40928;51.076;7.950;2022-09-03T07:53:34;96738.78;;;17.61;50.77
55032;BME280;40928;51.076;7.950;2022-09-03T07:56:07;96748.13;;;17.69;50.10
55032;BME280;40928;51.076;7.950;2022-09-03T07:58:35;96740.91;;;17.83;49.79
55032;BME280;40928;51.076;7.950;2022-09-03T08:01:07;96743.75;;;17.92;49.40
55032;BME280;40928;51.076;7.950;2022-09-03T08:03:33;96747.66;;;18.05;49.37
55032;BME280;40928;51.076;7.950;2022-09-03T08:06:05;96729.88;;;18.18;49.07
55032;BME280;40928;51.076;7.950;2022-09-03T08:08:31;96738.91;;;18.27;48.81
55032;BME280;40928;51.076;7.950;2022-09-03T08:11:09;96740.06;;;18.40;48.00
55032;BME280;40928;51.076;7.950;2022-09-03T08:13:47;96749.59;;;18.51;47.79
55032;BME280;40928;51.076;7.950;2022-09-03T08:16:15;96747.34;;;18.39;48.03
55032;BME280;40928;51.076;7.950;2022-09-03T08:18:42;96746.31;;;18.54;47.92
55032;BME280;40928;51.076;7.950;2022-09-03T08:21:13;96760.44;;;18.79;47.16
55032;BME280;40928;51.076;7.950;2022-09-03T08:23:44;96754.25;;;18.79;47.55
55032;BME280;40928;51.076;7.950;2022-09-03T08:26:11;96764.69;;;18.85;46.89
55032;BME280;40928;51.076;7.950;2022-09-03T08:28:37;96759.78;;;18.87;46.90
55032;BME280;40928;51.076;7.950;2022-09-03T08:31:06;96760.69;;;18.97;46.50
55032;BME280;40928;51.076;7.950;2022-09-03T08:33:32;96751.28;;;19.08;46.72
55032;BME280;40928;51.076;7.950;2022-09-03T08:36:10;96747.38;;;19.14;46.29
55032;BME280;40928;51.076;7.950;2022-09-03T08:38:40;96751.38;;;19.31;46.71
55032;BME280;40928;51.076;7.950;2022-09-03T08:52:36;96751.06;;;19.60;45.15
55032;BME280;40928;51.076;7.950;2022-09-03T08:55:19;96739.56;;;19.77;44.98
55032;BME280;40928;51.076;7.950;2022-09-03T08:57:49;96747.50;;;19.74;45.19
55032;BME280;40928;51.076;7.950;2022-09-03T09:00:16;96742.94;;;19.97;44.78
55032;BME280;40928;51.076;7.950;2022-09-03T09:14:23;96755.75;;;21.63;41.34
55032;BME280;40928;51.076;7.950;2022-09-03T09:22:30;96754.63;;;21.99;40.96
55032;BME280;40928;51.076;7.950;2022-09-03T09:25:01;96758.31;;;21.77;40.85
55032;BME280;40928;51.076;7.950;2022-09-03T09:27:28;96755.84;;;21.58;41.63
55032;BME280;40928;51.076;7.950;2022-09-03T09:30:00;96756.78;;;21.44;42.08
55032;BME280;40928;51.076;7.950;2022-09-03T09:32:28;96758.16;;;21.16;42.42
55032;BME280;40928;51.076;7.950;2022-09-03T09:34:55;96750.41;;;21.49;42.45
55032;BME280;40928;51.076;7.950;2022-09-03T09:37:20;96756.84;;;21.62;41.73
55032;BME280;40928;51.076;7.950;2022-09-03T09:39:58;96747.53;;;21.45;42.08
55032;BME280;40928;51.076;7.950;2022-09-03T09:42:24;96749.91;;;21.38;42.50
55032;BME280;40928;51.076;7.950;2022-09-03T09:44:49;96738.66;;;21.13;42.79
55032;BME280;40928;51.076;7.950;2022-09-03T09:47:25;96741.66;;;21.12;43.17
55032;BME280;40928;51.076;7.950;2022-09-03T09:49:56;96750.47;;;21.09;43.52
55032;BME280;40928;51.076;7.950;2022-09-03T09:52:25;96749.19;;;21.73;42.78
55032;BME280;40928;51.076;7.950;2022-09-03T09:55:08;96742.13;;;22.60;41.77
55032;BME280;40928;51.076;7.950;2022-09-03T09:57:34;96750.72;;;23.18;40.65
55032;BME280;40928;51.076;7.950;2022-09-03T10:00:07;96748.56;;;23.33;39.58
55032;BME280;40928;51.076;7.950;2022-09-03T10:02:48;96746.16;;;23.61;39.28
55032;BME280;40928;51.076;7.950;2022-09-03T10:05:35;96748.91;;;23.82;38.76
55032;BME280;40928;51.076;7.950;2022-09-03T10:08:06;96741.91;;;24.48;37.56
55032;BME280;40928;51.076;7.950;2022-09-03T10:10:45;96753.06;;;24.89;36.91
55032;BME280;40928;51.076;7.950;2022-09-03T10:13:20;96746.81;;;25.38;36.22
55032;BME280;40928;51.076;7.950;2022-09-03T10:15:50;96752.06;;;25.56;35.72
55032;BME280;40928;51.076;7.950;2022-09-03T10:21:08;96755.69;;;26.70;33.52
55032;BME280;40928;51.076;7.950;2022-09-03T10:26:22;96756.34;;;26.96;33.62
55032;BME280;40928;51.076;7.950;2022-09-03T10:28:57;96769.41;;;26.86;33.38
55032;BME280;40928;51.076;7.950;2022-09-03T10:39:27;96762.28;;;25.09;36.30
55032;BME280;40928;51.076;7.950;2022-09-03T10:45:12;96759.00;;;27.24;33.52
55032;BME280;40928;51.076;7.950;2022-09-03T10:47:43;96760.78;;;28.43;31.26
55032;BME280;40928;51.076;7.950;2022-09-03T10:50:27;96753.72;;;29.08;30.42
55032;BME280;40928;51.076;7.950;2022-09-03T10:56:01;96750.34;;;29.69;29.19
55032;BME280;40928;51.076;7.950;2022-09-03T10:58:39;96746.78;;;30.63;28.14
55032;BME280;40928;51.076;7.950;2022-09-03T11:03:50;96753.94;;;30.03;29.55
55032;BME280;40928;51.076;7.950;2022-09-03T11:06:27;96755.84;;;29.19;31.25
55032;BME280;40928;51.076;7.950;2022-09-03T11:11:41;96759.66;;;28.67;32.27
55032;BME280;40928;51.076;7.950;2022-09-03T11:14:13;96761.75;;;28.11;32.80
55032;BME280;40928;51.076;7.950;2022-09-03T11:16:48;96763.44;;;28.00;33.16
55032;BME280;40928;51.076;7.950;2022-09-03T11:19:17;96761.38;;;27.77;33.71
55032;BME280;40928;51.076;7.950;2022-09-03T11:21:47;96766.59;;;27.83;33.50
55032;BME280;40928;51.076;7.950;2022-09-03T11:24:23;96761.00;;;27.59;33.67
55032;BME280;40928;51.076;7.950;2022-09-03T11:27:04;96763.34;;;27.77;33.31
55032;BME280;40928;51.076;7.950;2022-09-03T11:30:01;96763.59;;;29.13;31.07
55032;BME280;40928;51.076;7.950;2022-09-03T11:32:49;96755.47;;;29.97;29.64
55032;BME280;40928;51.076;7.950;2022-09-03T11:37:59;96783.44;;;28.17;31.12
55032;BME280;40928;51.076;7.950;2022-09-03T11:40:32;96766.16;;;26.97;33.66
55032;BME280;40928;51.076;7.950;2022-09-03T11:45:48;96755.56;;;24.82;37.36
55032;BME280;40928;51.076;7.950;2022-09-03T11:48:42;96761.47;;;24.17;38.53
55032;BME280;40928;51.076;7.950;2022-09-03T11:56:31;96756.00;;;23.75;41.67
55032;BME280;40928;51.076;7.950;2022-09-03T11:59:24;96763.41;;;23.44;42.42
55032;BME280;40928;51.076;7.950;2022-09-03T12:13:26;96757.47;;;23.12;43.48
55032;BME280;40928;51.076;7.950;2022-09-03T12:16:11;96757.75;;;23.19;44.04
55032;BME280;40928;51.076;7.950;2022-09-03T12:18:43;96764.63;;;22.78;44.90
55032;BME280;40928;51.076;7.950;2022-09-03T12:21:15;96759.69;;;23.10;44.38
55032;BME280;40928;51.076;7.950;2022-09-03T12:23:47;96746.09;;;23.10;44.09
55032;BME280;40928;51.076;7.950;2022-09-03T12:26:16;96747.44;;;23.34;42.50
55032;BME280;40928;51.076;7.950;2022-09-03T12:28:45;96750.34;;;23.29;44.15
55032;BME280;40928;51.076;7.950;2022-09-03T12:31:17;96748.22;;;22.95;44.94
55032;BME280;40928;51.076;7.950;2022-09-03T12:33:49;96747.09;;;22.31;45.81
55032;BME280;40928;51.076;7.950;2022-09-03T12:36:16;96742.41;;;22.58;45.41
55032;BME280;40928;51.076;7.950;2022-09-03T12:38:42;96753.66;;;23.04;44.64
55032;BME280;40928;51.076;7.950;2022-09-03T12:41:23;96747.06;;;23.05;44.04
55032;BME280;40928;51.076;7.950;2022-09-03T12:43:53;96752.91;;;23.34;43.56
55032;BME280;40928;51.076;7.950;2022-09-03T12:46:28;96744.88;;;23.37;44.05
55032;BME280;40928;51.076;7.950;2022-09-03T12:48:58;96739.38;;;23.46;44.20
55032;BME280;40928;51.076;7.950;2022-09-03T12:51:38;96744.66;;;23.94;43.56
55032;BME280;40928;51.076;7.950;2022-09-03T12:54:09;96744.81;;;24.31;43.49
55032;BME280;40928;51.076;7.950;2022-09-03T12:56:50;96745.03;;;24.59;42.38
55032;BME280;40928;51.076;7.950;2022-09-03T12:59:20;96737.50;;;24.56;42.79
55032;BME280;40928;51.076;7.950;2022-09-03T13:01:59;96739.19;;;24.48;42.58
55032;BME280;40928;51.076;7.950;2022-09-03T13:04:34;96732.59;;;24.50;42.47
55032;BME280;40928;51.076;7.950;2022-09-03T13:07:10;96735.13;;;24.55;42.81
55032;BME280;40928;51.076;7.950;2022-09-03T13:09:39;96730.97;;;24.70;42.02
55032;BME280;40928;51.076;7.950;2022-09-03T13:12:07;96729.19;;;24.53;43.12
55032;BME280;40928;51.076;7.950;2022-09-03T13:14:46;96730.31;;;25.22;41.87
55032;BME280;40928;51.076;7.950;2022-09-03T13:25:07;96734.25;;;24.29;42.76
55032;BME280;40928;51.076;7.950;2022-09-03T13:30:36;96722.00;;;24.14;42.58
55032;BME280;40928;51.076;7.950;2022-09-03T13:36:15;96709.47;;;23.59;43.92
55032;BME280;40928;51.076;7.950;2022-09-03T13:38:50;96716.97;;;23.62;43.72
55032;BME280;40928;51.076;7.950;2022-09-03T13:44:45;96719.78;;;23.74;43.69
55032;BME280;40928;51.076;7.950;2022-09-03T13:47:28;96710.19;;;24.10;42.72
55032;BME280;40928;51.076;7.950;2022-09-03T13:50:10;96701.59;;;24.21;43.63
55032;BME280;40928;51.076;7.950;2022-09-03T13:58:24;96717.50;;;23.55;44.43
55032;BME280;40928;51.076;7.950;2022-09-03T14:01:22;96715.91;;;23.54;44.42
55032;BME280;40928;51.076;7.950;2022-09-03T14:03:53;96731.38;;;23.02;45.22
55032;BME280;40928;51.076;7.950;2022-09-03T14:11:52;96715.78;;;23.20;45.11
55032;BME280;40928;51.076;7.950;2022-09-03T14:17:23;96733.59;;;22.70;45.46
55032;BME280;40928;51.076;7.950;2022-09-03T14:25:24;96737.97;;;22.45;46.66
55032;BME280;40928;51.076;7.950;2022-09-03T14:27:50;96733.31;;;22.54;46.25
55032;BME280;40928;51.076;7.950;2022-09-03T14:30:30;96732.69;;;22.40;46.20
55032;BME280;40928;51.076;7.950;2022-09-03T15:03:14;96729.66;;;22.32;47.75
55032;BME280;40928;51.076;7.950;2022-09-03T15:10:59;96742.78;;;22.30;47.73
55032;BME280;40928;51.076;7.950;2022-09-03T15:13:32;96736.06;;;22.36;48.20
55032;BME280;40928;51.076;7.950;2022-09-03T15:30:15;96740.25;;;22.08;48.53
55032;BME280;40928;51.076;7.950;2022-09-03T15:32:56;96745.84;;;21.85;49.07
55032;BME280;40928;51.076;7.950;2022-09-03T15:35:44;96748.25;;;21.86;49.08
55032;BME280;40928;51.076;7.950;2022-09-03T15:44:18;96764.00;;;21.49;50.25
55032;BME280;40928;51.076;7.950;2022-09-03T15:46:47;96751.69;;;21.52;50.36
55032;BME280;40928;51.076;7.950;2022-09-03T15:49:25;96751.72;;;21.60;50.12
55032;BME280;40928;51.076;7.950;2022-09-03T15:57:51;96752.00;;;21.41;51.17
55032;BME280;40928;51.076;7.950;2022-09-03T16:00:20;96756.94;;;21.39;51.53
55032;BME280;40928;51.076;7.950;2022-09-03T16:02:54;96754.81;;;21.27;51.62
55032;BME280;40928;51.076;7.950;2022-09-03T16:08:18;96750.69;;;21.30;51.95
55032;BME280;40928;51.076;7.950;2022-09-03T16:16:20;96770.03;;;21.37;52.19
55032;BME280;40928;51.076;7.950;2022-09-03T16:22:00;96771.63;;;21.38;52.16
55032;BME280;40928;51.076;7.950;2022-09-03T16:24:52;96761.06;;;21.28;52.25
55032;BME280;40928;51.076;7.950;2022-09-03T16:27:25;96771.28;;;21.22;52.86
55032;BME280;40928;51.076;7.950;2022-09-03T16:40:55;96768.81;;;21.12;53.08
55032;BME280;40928;51.076;7.950;2022-09-03T16:46:58;96775.69;;;21.09;53.47
55032;BME280;40928;51.076;7.950;2022-09-03T16:49:58;96772.19;;;21.09;53.63
55032;BME280;40928;51.076;7.950;2022-09-03T17:06:55;96777.03;;;20.89;53.99
55032;BME280;40928;51.076;7.950;2022-09-03T17:12:07;96775.88;;;20.81;54.09
55032;BME280;40928;51.076;7.950;2022-09-03T17:36:25;96791.56;;;20.39;54.53
55032;BME280;40928;51.076;7.950;2022-09-03T17:41:51;96794.50;;;20.29;54.79
55032;BME280;40928;51.076;7.950;2022-09-03T17:55:12;96804.97;;;19.99;55.11
55032;BME280;40928;51.076;7.950;2022-09-03T17:57:50;96808.28;;;19.96;54.93
55032;BME280;40928;51.076;7.950;2022-09-03T18:00:30;96803.16;;;19.94;54.98
55032;BME280;40928;51.076;7.950;2022-09-03T18:05:50;96805.38;;;19.78;55.20
55032;BME280;40928;51.076;7.950;2022-09-03T18:08:43;96812.19;;;19.75;55.52
55032;BME280;40928;51.076;7.950;2022-09-03T18:11:17;96820.66;;;19.74;55.49
55032;BME280;40928;51.076;7.950;2022-09-03T18:18:50;96831.06;;;19.67;55.77
55032;BME280;40928;51.076;7.950;2022-09-03T18:21:24;96832.09;;;19.57;55.96
55032;BME280;40928;51.076;7.950;2022-09-03T18:24:40;96830.38;;;19.47;56.33
55032;BME280;40928;51.076;7.950;2022-09-03T18:27:53;96835.09;;;19.41;56.68
55032;BME280;40928;51.076;7.950;2022-09-03T18:30:41;96833.09;;;19.33;57.00
55032;BME280;40928;51.076;7.950;2022-09-03T18:33:28;96833.00;;;19.24;57.66
55032;BME280;40928;51.076;7.950;2022-09-03T18:36:13;96834.50;;;19.16;57.73